sensor_id;sensor_type;location;lat;lon;timestamp;P1;durP1;ratioP1;P2;durP2;ratioP2
9948;SDS011;5013;51.840;8.276;2023-02-24T00:01:26;37.30;;;8.17;;
9948;SDS011;5013;51.840;8.276;2023-02-24T00:03:56;32.97;;;7.50;;
9948;SDS011;5013;51.840;8.276;2023-02-24T00:06:24;46.80;;;10.00;;
9948;SDS011;5013;51.840;8.276;2023-02-24T00:09:04;32.30;;;7.37;;
9948;SDS011;5013;51.840;8.276;2023-02-24T00:11:34;32.73;;;6.90;;
9948;SDS011;5013;51.840;8.276;2023-02-24T00:14:05;36.03;;;6.90;;
9948;SDS011;5013;51.840;8.276;2023-02-24T00:16:31;42.73;;;7.93;;
9948;SDS011;5013;51.840;8.276;2023-02-24T00:18:58;38.63;;;7.80;;
9948;SDS011;5013;51.840;8.276;2023-02-24T00:21:24;30.93;;;6.80;;
9948;SDS011;5013;51.840;8.276;2023-02-24T00:23:50;42.60;;;8.07;;
9948;SDS011;5013;51.840;8.276;2023-02-24T00:26:17;38.20;;;6.57;;
9948;SDS011;5013;51.840;8.276;2023-02-24T00:28:43;42.97;;;6.70;;
9948;SDS011;5013;51.840;8.276;2023-02-24T00:31:10;40.37;;;7.43;;
9948;SDS011;5013;51.840;8.276;2023-02-24T00:33:42;53.80;;;7.70;;
9948;SDS011;5013;51.840;8.276;2023-02-24T00:36:09;52.30;;;6.57;;
9948;SDS011;5013;51.840;8.276;2023-02-24T00:38:39;47.00;;;6.43;;
9948;SDS011;5013;51.840;8.276;2023-02-24T00:41:12;44.10;;;7.43;;
9948;SDS011;5013;51.840;8.276;2023-02-24T00:43:40;47.07;;;7.23;;
9948;SDS011;5013;51.840;8.276;2023-02-24T00:46:11;38.53;;;6.80;;
9948;SDS011;5013;51.840;8.276;2023-02-24T00:48:38;34.37;;;5.90;;
9948;SDS011;5013;51.840;8.276;2023-02-24T00:51:11;28.43;;;5.03;;
9948;SDS011;5013;51.840;8.276;2023-02-24T00:53:40;40.33;;;6.73;;
9948;SDS011;5013;51.840;8.276;2023-02-24T00:56:08;41.97;;;7.13;;
9948;SDS011;5013;51.840;8.276;2023-02-24T00:58:36;42.23;;;8.00;;
9948;SDS011;5013;51.840;8.276;2023-02-24T01:01:10;44.37;;;7.43;;
9948;SDS011;5013;51.840;8.276;2023-02-24T01:03:41;43.27;;;7.80;;
9948;SDS011;5013;51.840;8.276;2023-02-24T01:06:07;44.27;;;6.70;;
9948;SDS011;5013;51.840;8.276;2023-02-24T01:08:35;36.03;;;6.73;;
9948;SDS011;5013;51.840;8.276;2023-02-24T01:11:04;35.23;;;5.60;;
9948;SDS011;5013;51.840;8.276;2023-02-24T01:13:48;43.97;;;6.93;;
9948;SDS011;5013;51.840;8.276;2023-02-24T01:16:14;33.90;;;6.77;;
9948;SDS011;5013;51.840;8.276;2023-02-24T01:18:43;38.13;;;6.30;;
9948;SDS011;5013;51.840;8.276;2023-02-24T01:21:11;32.90;;;6.13;;
9948;SDS011;5013;51.840;8.276;2023-02-24T01:23:38;49.97;;;7.00;;
9948;SDS011;5013;51.840;8.276;2023-02-24T01:26:05;41.13;;;7.77;;
9948;SDS011;5013;51.840;8.276;2023-02-24T01:28:30;37.17;;;7.13;;
9948;SDS011;5013;51.840;8.276;2023-02-24T01:31:00;41.80;;;7.37;;
9948;SDS011;5013;51.840;8.276;2023-02-24T01:33:27;48.13;;;7.70;;
9948;SDS011;5013;51.840;8.276;2023-02-24T01:35:54;38.77;;;7.73;;
9948;SDS011;5013;51.840;8.276;2023-02-24T01:38:20;41.83;;;6.80;;
9948;SDS011;5013;51.840;8.276;2023-02-24T01:40:56;47.53;;;7.70;;
9948;SDS011;5013;51.840;8.276;2023-02-24T01:43:23;33.83;;;6.47;;
9948;SDS011;5013;51.840;8.276;2023-02-24T01:45:49;37.53;;;6.57;;
9948;SDS011;5013;51.840;8.276;2023-02-24T01:48:17;39.77;;;7.80;;
9948;SDS011;5013;51.840;8.276;2023-02-24T01:50:43;35.90;;;7.20;;
9948;SDS011;5013;51.840;8.276;2023-02-24T01:53:09;51.93;;;7.50;;
9948;SDS011;5013;51.840;8.276;2023-02-24T01:55:43;46.27;;;7.50;;
9948;SDS011;5013;51.840;8.276;2023-02-24T01:58:32;52.70;;;7.60;;
9948;SDS011;5013;51.840;8.276;2023-02-24T02:00:58;42.03;;;7.53;;
9948;SDS011;5013;51.840;8.276;2023-02-24T02:03:28;40.93;;;7.03;;
9948;SDS011;5013;51.840;8.276;2023-02-24T02:06:02;42.53;;;7.20;;
9948;SDS011;5013;51.840;8.276;2023-02-24T02:08:30;37.40;;;6.80;;
9948;SDS011;5013;51.840;8.276;2023-02-24T02:11:02;35.73;;;6.37;;
9948;SDS011;5013;51.840;8.276;2023-02-24T02:13:30;43.87;;;7.20;;
9948;SDS011;5013;51.840;8.276;2023-02-24T02:21:49;37.43;;;6.10;;
9948;SDS011;5013;51.840;8.276;2023-02-24T02:24:43;33.70;;;6.20;;
9948;SDS011;5013;51.840;8.276;2023-02-24T02:27:27;32.90;;;5.97;;
9948;SDS011;5013;51.840;8.276;2023-02-24T02:32:48;35.63;;;6.00;;
9948;SDS011;5013;51.840;8.276;2023-02-24T02:43:12;23.97;;;5.13;;
9948;SDS011;5013;51.840;8.276;2023-02-24T02:48:39;36.40;;;5.60;;
9948;SDS011;5013;51.840;8.276;2023-02-24T02:51:23;31.83;;;5.90;;
9948;SDS011;5013;51.840;8.276;2023-02-24T02:53:55;29.77;;;5.03;;
9948;SDS011;5013;51.840;8.276;2023-02-24T02:56:48;39.33;;;6.73;;
9948;SDS011;5013;51.840;8.276;2023-02-24T02:59:18;40.57;;;8.73;;
9948;SDS011;5013;51.840;8.276;2023-02-24T03:01:49;40.57;;;11.67;;
9948;SDS011;5013;51.840;8.276;2023-02-24T03:04:20;30.40;;;8.13;;
9948;SDS011;5013;51.840;8.276;2023-02-24T03:06:50;26.60;;;6.40;;
9948;SDS011;5013;51.840;8.276;2023-02-24T03:09:21;21.53;;;5.27;;
9948;SDS011;5013;51.840;8.276;2023-02-24T03:11:51;28.33;;;6.40;;
9948;SDS011;5013;51.840;8.276;2023-02-24T03:14:27;33.20;;;6.20;;
9948;SDS011;5013;51.840;8.276;2023-02-24T03:16:57;38.00;;;7.57;;
9948;SDS011;5013;51.840;8.276;2023-02-24T03:19:25;35.37;;;7.57;;
9948;SDS011;5013;51.840;8.276;2023-02-24T03:22:13;19.40;;;5.10;;
9948;SDS011;5013;51.840;8.276;2023-02-24T03:24:44;31.97;;;6.47;;
9948;SDS011;5013;51.840;8.276;2023-02-24T03:27:11;32.77;;;5.67;;
9948;SDS011;5013;51.840;8.276;2023-02-24T03:30:01;30.40;;;5.60;;
9948;SDS011;5013;51.840;8.276;2023-02-24T03:32:53;22.10;;;4.93;;
9948;SDS011;5013;51.840;8.276;2023-02-24T03:35:21;21.90;;;4.87;;
9948;SDS011;5013;51.840;8.276;2023-02-24T03:37:51;22.27;;;5.17;;
9948;SDS011;5013;51.840;8.276;2023-02-24T03:40:20;34.50;;;5.57;;
9948;SDS011;5013;51.840;8.276;2023-02-24T03:42:47;25.37;;;5.20;;
9948;SDS011;5013;51.840;8.276;2023-02-24T03:45:16;20.70;;;5.00;;
9948;SDS011;5013;51.840;8.276;2023-02-24T03:47:43;28.57;;;5.47;;
9948;SDS011;5013;51.840;8.276;2023-02-24T03:50:15;21.37;;;4.90;;
9948;SDS011;5013;51.840;8.276;2023-02-24T04:01:18;24.97;;;5.33;;
9948;SDS011;5013;51.840;8.276;2023-02-24T04:06:51;25.80;;;5.17;;
9948;SDS011;5013;51.840;8.276;2023-02-24T04:12:05;30.70;;;5.30;;
9948;SDS011;5013;51.840;8.276;2023-02-24T04:17:31;23.03;;;4.90;;
9948;SDS011;5013;51.840;8.276;2023-02-24T04:20:11;20.87;;;5.20;;
9948;SDS011;5013;51.840;8.276;2023-02-24T04:22:40;24.13;;;4.73;;
9948;SDS011;5013;51.840;8.276;2023-02-24T04:25:09;19.63;;;4.83;;
9948;SDS011;5013;51.840;8.276;2023-02-24T04:27:38;23.20;;;5.07;;
9948;SDS011;5013;51.840;8.276;2023-02-24T04:30:07;28.40;;;5.13;;
9948;SDS011;5013;51.840;8.276;2023-02-24T04:32:35;20.03;;;5.57;;
9948;SDS011;5013;51.840;8.276;2023-02-24T04:35:02;27.97;;;5.43;;
9948;SDS011;5013;51.840;8.276;2023-02-24T04:37:33;19.90;;;5.10;;
9948;SDS011;5013;51.840;8.276;2023-02-24T04:40:00;23.37;;;5.13;;
9948;SDS011;5013;51.840;8.276;2023-02-24T04:42:26;24.90;;;5.23;;
9948;SDS011;5013;51.840;8.276;2023-02-24T04:44:52;16.90;;;4.20;;
9948;SDS011;5013;51.840;8.276;2023-02-24T04:47:18;25.53;;;4.63;;
9948;SDS011;5013;51.840;8.276;2023-02-24T04:49:44;22.77;;;4.73;;
9948;SDS011;5013;51.840;8.276;2023-02-24T04:52:10;32.63;;;5.37;;
9948;SDS011;5013;51.840;8.276;2023-02-24T04:54:36;19.77;;;4.40;;
9948;SDS011;5013;51.840;8.276;2023-02-24T04:57:02;25.43;;;5.33;;
9948;SDS011;5013;51.840;8.276;2023-02-24T04:59:30;26.47;;;4.90;;
9948;SDS011;5013;51.840;8.276;2023-02-24T05:01:56;19.07;;;4.40;;
9948;SDS011;5013;51.840;8.276;2023-02-24T05:04:25;29.93;;;5.50;;
9948;SDS011;5013;51.840;8.276;2023-02-24T05:06:55;16.13;;;4.27;;
9948;SDS011;5013;51.840;8.276;2023-02-24T05:09:21;33.90;;;5.13;;
9948;SDS011;5013;51.840;8.276;2023-02-24T05:11:49;24.23;;;4.57;;
9948;SDS011;5013;51.840;8.276;2023-02-24T05:14:17;33.57;;;5.50;;
9948;SDS011;5013;51.840;8.276;2023-02-24T05:16:48;20.10;;;4.70;;
9948;SDS011;5013;51.840;8.276;2023-02-24T05:19:15;28.37;;;5.20;;
9948;SDS011;5013;51.840;8.276;2023-02-24T05:22:02;24.57;;;5.57;;
9948;SDS011;5013;51.840;8.276;2023-02-24T05:24:29;17.63;;;4.77;;
9948;SDS011;5013;51.840;8.276;2023-02-24T05:26:55;19.23;;;4.80;;
9948;SDS011;5013;51.840;8.276;2023-02-24T05:29:28;21.67;;;4.80;;
9948;SDS011;5013;51.840;8.276;2023-02-24T05:31:56;22.23;;;4.27;;
9948;SDS011;5013;51.840;8.276;2023-02-24T05:34:23;25.17;;;4.87;;
9948;SDS011;5013;51.840;8.276;2023-02-24T05:36:56;20.03;;;4.43;;
9948;SDS011;5013;51.840;8.276;2023-02-24T05:39:23;27.57;;;4.57;;
9948;SDS011;5013;51.840;8.276;2023-02-24T05:41:51;16.43;;;4.67;;
9948;SDS011;5013;51.840;8.276;2023-02-24T05:44:19;17.77;;;5.13;;
9948;SDS011;5013;51.840;8.276;2023-02-24T05:46:50;23.97;;;4.93;;
9948;SDS011;5013;51.840;8.276;2023-02-24T05:49:21;18.27;;;4.23;;
9948;SDS011;5013;51.840;8.276;2023-02-24T05:51:51;20.93;;;4.63;;
9948;SDS011;5013;51.840;8.276;2023-02-24T05:54:19;13.90;;;4.20;;
9948;SDS011;5013;51.840;8.276;2023-02-24T05:56:47;11.70;;;4.43;;
9948;SDS011;5013;51.840;8.276;2023-02-24T05:59:13;20.87;;;4.83;;
9948;SDS011;5013;51.840;8.276;2023-02-24T06:01:42;29.70;;;4.27;;
9948;SDS011;5013;51.840;8.276;2023-02-24T06:04:11;20.60;;;4.27;;
9948;SDS011;5013;51.840;8.276;2023-02-24T06:06:45;16.30;;;4.27;;
9948;SDS011;5013;51.840;8.276;2023-02-24T06:09:12;18.40;;;4.60;;
9948;SDS011;5013;51.840;8.276;2023-02-24T06:11:38;12.20;;;4.30;;
9948;SDS011;5013;51.840;8.276;2023-02-24T06:14:05;20.20;;;3.93;;
9948;SDS011;5013;51.840;8.276;2023-02-24T06:16:32;15.63;;;3.53;;
9948;SDS011;5013;51.840;8.276;2023-02-24T06:18:58;11.47;;;3.10;;
9948;SDS011;5013;51.840;8.276;2023-02-24T06:21:24;17.67;;;4.33;;
9948;SDS011;5013;51.840;8.276;2023-02-24T06:23:53;9.03;;;2.90;;
9948;SDS011;5013;51.840;8.276;2023-02-24T06:26:23;15.03;;;2.80;;
9948;SDS011;5013;51.840;8.276;2023-02-24T06:28:53;13.67;;;3.50;;
9948;SDS011;5013;51.840;8.276;2023-02-24T06:31:20;25.00;;;3.43;;
9948;SDS011;5013;51.840;8.276;2023-02-24T06:33:46;14.80;;;2.90;;
9948;SDS011;5013;51.840;8.276;2023-02-24T06:36:12;12.00;;;2.50;;
9948;SDS011;5013;51.840;8.276;2023-02-24T06:38:38;9.63;;;2.20;;
9948;SDS011;5013;51.840;8.276;2023-02-24T06:41:05;11.23;;;2.77;;
9948;SDS011;5013;51.840;8.276;2023-02-24T06:43:42;10.60;;;2.70;;
9948;SDS011;5013;51.840;8.276;2023-02-24T06:46:09;7.30;;;2.43;;
9948;SDS011;5013;51.840;8.276;2023-02-24T06:48:36;15.03;;;2.97;;
9948;SDS011;5013;51.840;8.276;2023-02-24T06:51:12;8.73;;;2.50;;
9948;SDS011;5013;51.840;8.276;2023-02-24T06:53:39;15.00;;;2.80;;
9948;SDS011;5013;51.840;8.276;2023-02-24T06:56:12;14.93;;;2.60;;
9948;SDS011;5013;51.840;8.276;2023-02-24T06:58:43;17.83;;;3.00;;
9948;SDS011;5013;51.840;8.276;2023-02-24T07:01:15;13.87;;;2.40;;
9948;SDS011;5013;51.840;8.276;2023-02-24T07:03:46;11.57;;;2.63;;
9948;SDS011;5013;51.840;8.276;2023-02-24T07:06:27;8.53;;;2.80;;
9948;SDS011;5013;51.840;8.276;2023-02-24T07:08:58;9.47;;;2.43;;
9948;SDS011;5013;51.840;8.276;2023-02-24T07:11:26;7.50;;;2.20;;
9948;SDS011;5013;51.840;8.276;2023-02-24T07:13:53;11.53;;;2.70;;
9948;SDS011;5013;51.840;8.276;2023-02-24T07:16:19;10.80;;;2.57;;
9948;SDS011;5013;51.840;8.276;2023-02-24T07:18:51;12.30;;;2.60;;
9948;SDS011;5013;51.840;8.276;2023-02-24T07:21:22;12.40;;;3.30;;
9948;SDS011;5013;51.840;8.276;2023-02-24T07:23:49;8.27;;;2.77;;
9948;SDS011;5013;51.840;8.276;2023-02-24T07:26:21;17.60;;;3.03;;
9948;SDS011;5013;51.840;8.276;2023-02-24T07:28:48;11.00;;;2.50;;
9948;SDS011;5013;51.840;8.276;2023-02-24T07:31:16;12.07;;;3.20;;
9948;SDS011;5013;51.840;8.276;2023-02-24T07:33:45;14.77;;;3.03;;
9948;SDS011;5013;51.840;8.276;2023-02-24T07:36:11;7.63;;;2.40;;
9948;SDS011;5013;51.840;8.276;2023-02-24T07:38:39;15.17;;;3.20;;
9948;SDS011;5013;51.840;8.276;2023-02-24T07:41:06;14.47;;;3.33;;
9948;SDS011;5013;51.840;8.276;2023-02-24T07:43:34;10.83;;;3.20;;
9948;SDS011;5013;51.840;8.276;2023-02-24T07:46:08;11.47;;;2.73;;
9948;SDS011;5013;51.840;8.276;2023-02-24T07:48:35;14.27;;;3.33;;
9948;SDS011;5013;51.840;8.276;2023-02-24T07:51:08;9.33;;;2.77;;
9948;SDS011;5013;51.840;8.276;2023-02-24T07:53:35;18.73;;;2.83;;
9948;SDS011;5013;51.840;8.276;2023-02-24T07:56:07;10.43;;;2.80;;
9948;SDS011;5013;51.840;8.276;2023-02-24T07:58:38;17.00;;;3.10;;
9948;SDS011;5013;51.840;8.276;2023-02-24T08:01:06;8.70;;;2.70;;
9948;SDS011;5013;51.840;8.276;2023-02-24T08:03:33;9.00;;;2.73;;
9948;SDS011;5013;51.840;8.276;2023-02-24T08:06:01;15.23;;;3.10;;
9948;SDS011;5013;51.840;8.276;2023-02-24T08:08:37;15.13;;;3.37;;
9948;SDS011;5013;51.840;8.276;2023-02-24T08:11:22;15.33;;;3.23;;
9948;SDS011;5013;51.840;8.276;2023-02-24T08:14:02;9.60;;;2.80;;
9948;SDS011;5013;51.840;8.276;2023-02-24T08:16:44;17.30;;;3.67;;
9948;SDS011;5013;51.840;8.276;2023-02-24T08:19:12;15.60;;;4.30;;
9948;SDS011;5013;51.840;8.276;2023-02-24T08:21:45;19.50;;;4.87;;
9948;SDS011;5013;51.840;8.276;2023-02-24T08:24:14;14.77;;;4.10;;
9948;SDS011;5013;51.840;8.276;2023-02-24T08:26:41;18.90;;;4.20;;
9948;SDS011;5013;51.840;8.276;2023-02-24T08:29:31;14.13;;;3.90;;
9948;SDS011;5013;51.840;8.276;2023-02-24T08:32:06;23.50;;;4.90;;
9948;SDS011;5013;51.840;8.276;2023-02-24T08:34:35;17.50;;;3.53;;
9948;SDS011;5013;51.840;8.276;2023-02-24T08:37:02;15.67;;;3.50;;
9948;SDS011;5013;51.840;8.276;2023-02-24T08:39:28;23.07;;;4.03;;
9948;SDS011;5013;51.840;8.276;2023-02-24T08:41:58;13.07;;;3.97;;
9948;SDS011;5013;51.840;8.276;2023-02-24T08:44:23;16.10;;;4.10;;
9948;SDS011;5013;51.840;8.276;2023-02-24T08:46:51;15.47;;;3.40;;
9948;SDS011;5013;51.840;8.276;2023-02-24T08:49:18;12.73;;;3.70;;
9948;SDS011;5013;51.840;8.276;2023-02-24T08:51:46;17.60;;;3.93;;
9948;SDS011;5013;51.840;8.276;2023-02-24T08:54:17;10.27;;;3.50;;
9948;SDS011;5013;51.840;8.276;2023-02-24T08:56:51;12.23;;;4.20;;
9948;SDS011;5013;51.840;8.276;2023-02-24T08:59:23;11.07;;;3.43;;
9948;SDS011;5013;51.840;8.276;2023-02-24T09:02:02;13.00;;;3.70;;
9948;SDS011;5013;51.840;8.276;2023-02-24T09:04:59;18.97;;;4.10;;
9948;SDS011;5013;51.840;8.276;2023-02-24T09:07:29;23.43;;;3.93;;
9948;SDS011;5013;51.840;8.276;2023-02-24T09:09:59;14.27;;;3.37;;
9948;SDS011;5013;51.840;8.276;2023-02-24T09:12:30;12.07;;;3.20;;
9948;SDS011;5013;51.840;8.276;2023-02-24T09:15:00;16.63;;;3.37;;
9948;SDS011;5013;51.840;8.276;2023-02-24T09:17:29;13.23;;;3.23;;
9948;SDS011;5013;51.840;8.276;2023-02-24T09:20:05;14.90;;;3.37;;
9948;SDS011;5013;51.840;8.276;2023-02-24T09:22:51;16.00;;;3.37;;
9948;SDS011;5013;51.840;8.276;2023-02-24T09:25:43;17.13;;;3.50;;
9948;SDS011;5013;51.840;8.276;2023-02-24T09:28:22;12.63;;;3.37;;
9948;SDS011;5013;51.840;8.276;2023-02-24T09:30:50;18.27;;;3.80;;
9948;SDS011;5013;51.840;8.276;2023-02-24T09:33:21;15.50;;;3.47;;
9948;SDS011;5013;51.840;8.276;2023-02-24T09:36:14;14.73;;;3.47;;
9948;SDS011;5013;51.840;8.276;2023-02-24T09:38:52;13.80;;;3.40;;
9948;SDS011;5013;51.840;8.276;2023-02-24T09:41:32;15.77;;;4.30;;
9948;SDS011;5013;51.840;8.276;2023-02-24T09:52:10;15.37;;;3.50;;
9948;SDS011;5013;51.840;8.276;2023-02-24T09:54:41;12.23;;;3.37;;
9948;SDS011;5013;51.840;8.276;2023-02-24T09:57:37;17.77;;;3.77;;
9948;SDS011;5013;51.840;8.276;2023-02-24T10:03:44;29.67;;;5.53;;
9948;SDS011;5013;51.840;8.276;2023-02-24T10:06:33;17.17;;;4.13;;
9948;SDS011;5013;51.840;8.276;2023-02-24T10:09:36;12.07;;;4.00;;
9948;SDS011;5013;51.840;8.276;2023-02-24T10:12:15;20.43;;;4.63;;
9948;SDS011;5013;51.840;8.276;2023-02-24T10:17:50;22.23;;;5.17;;
9948;SDS011;5013;51.840;8.276;2023-02-24T10:23:08;22.97;;;5.87;;
9948;SDS011;5013;51.840;8.276;2023-02-24T10:32:06;18.17;;;5.97;;
9948;SDS011;5013;51.840;8.276;2023-02-24T10:35:07;28.37;;;7.07;;
9948;SDS011;5013;51.840;8.276;2023-02-24T10:37:40;24.97;;;6.83;;
9948;SDS011;5013;51.840;8.276;2023-02-24T10:40:06;22.77;;;6.13;;
9948;SDS011;5013;51.840;8.276;2023-02-24T10:42:41;16.93;;;6.00;;
9948;SDS011;5013;51.840;8.276;2023-02-24T10:47:37;15.97;;;6.10;;
9948;SDS011;5013;51.840;8.276;2023-02-24T10:50:54;20.73;;;5.60;;
9948;SDS011;5013;51.840;8.276;2023-02-24T10:53:00;20.53;;;6.27;;
9948;SDS011;5013;51.840;8.276;2023-02-24T10:55:31;20.47;;;6.23;;
9948;SDS011;5013;51.840;8.276;2023-02-24T11:01:12;23.13;;;7.63;;
9948;SDS011;5013;51.840;8.276;2023-02-24T11:06:29;23.77;;;8.30;;
9948;SDS011;5013;51.840;8.276;2023-02-24T11:09:12;28.10;;;10.17;;
9948;SDS011;5013;51.840;8.276;2023-02-24T11:14:52;16.33;;;7.27;;
9948;SDS011;5013;51.840;8.276;2023-02-24T11:18:14;17.13;;;7.40;;
9948;SDS011;5013;51.840;8.276;2023-02-24T11:20:47;21.13;;;8.83;;
9948;SDS011;5013;51.840;8.276;2023-02-24T11:23:21;21.27;;;9.47;;
9948;SDS011;5013;51.840;8.276;2023-02-24T11:25:51;30.00;;;9.23;;
9948;SDS011;5013;51.840;8.276;2023-02-24T11:39:44;25.60;;;13.17;;
9948;SDS011;5013;51.840;8.276;2023-02-24T11:42:25;23.40;;;12.07;;
9948;SDS011;5013;51.840;8.276;2023-02-24T11:45:07;22.63;;;13.50;;
9948;SDS011;5013;51.840;8.276;2023-02-24T11:47:54;26.97;;;11.87;;
9948;SDS011;5013;51.840;8.276;2023-02-24T11:50:37;18.60;;;10.43;;
9948;SDS011;5013;51.840;8.276;2023-02-24T11:55:53;16.20;;;9.33;;
9948;SDS011;5013;51.840;8.276;2023-02-24T11:58:28;27.40;;;10.67;;
9948;SDS011;5013;51.840;8.276;2023-02-24T12:01:02;22.43;;;11.50;;
9948;SDS011;5013;51.840;8.276;2023-02-24T12:03:32;30.47;;;11.87;;
9948;SDS011;5013;51.840;8.276;2023-02-24T12:06:08;18.23;;;11.10;;
9948;SDS011;5013;51.840;8.276;2023-02-24T12:08:44;24.57;;;12.77;;
9948;SDS011;5013;51.840;8.276;2023-02-24T12:11:20;22.47;;;10.00;;
9948;SDS011;5013;51.840;8.276;2023-02-24T12:13:49;30.80;;;12.40;;
9948;SDS011;5013;51.840;8.276;2023-02-24T12:16:21;24.00;;;10.77;;
9948;SDS011;5013;51.840;8.276;2023-02-24T12:18:54;23.93;;;11.27;;
9948;SDS011;5013;51.840;8.276;2023-02-24T12:21:37;31.07;;;11.43;;
9948;SDS011;5013;51.840;8.276;2023-02-24T12:24:07;25.20;;;12.63;;
9948;SDS011;5013;51.840;8.276;2023-02-24T12:35:10;20.53;;;10.77;;
9948;SDS011;5013;51.840;8.276;2023-02-24T12:41:25;27.53;;;13.20;;
9948;SDS011;5013;51.840;8.276;2023-02-24T12:44:29;22.67;;;15.93;;
9948;SDS011;5013;51.840;8.276;2023-02-24T12:47:04;21.23;;;13.67;;
9948;SDS011;5013;51.840;8.276;2023-02-24T12:57:36;19.20;;;13.97;;
9948;SDS011;5013;51.840;8.276;2023-02-24T13:05:43;20.83;;;15.80;;
9948;SDS011;5013;51.840;8.276;2023-02-24T13:08:28;21.80;;;16.73;;
9948;SDS011;5013;51.840;8.276;2023-02-24T13:14:18;26.10;;;19.70;;
9948;SDS011;5013;51.840;8.276;2023-02-24T13:17:02;26.07;;;20.90;;
9948;SDS011;5013;51.840;8.276;2023-02-24T13:19:34;27.73;;;23.70;;
9948;SDS011;5013;51.840;8.276;2023-02-24T13:24:36;23.47;;;20.13;;
9948;SDS011;5013;51.840;8.276;2023-02-24T13:27:06;25.60;;;22.33;;
9948;SDS011;5013;51.840;8.276;2023-02-24T13:29:44;33.13;;;24.47;;
9948;SDS011;5013;51.840;8.276;2023-02-24T13:34:58;34.83;;;25.73;;
9948;SDS011;5013;51.840;8.276;2023-02-24T13:37:35;31.20;;;23.70;;
9948;SDS011;5013;51.840;8.276;2023-02-24T13:42:43;30.40;;;24.43;;
9948;SDS011;5013;51.840;8.276;2023-02-24T13:45:20;29.53;;;22.57;;
9948;SDS011;5013;51.840;8.276;2023-02-24T13:50:32;29.40;;;21.77;;
9948;SDS011;5013;51.840;8.276;2023-02-24T13:53:20;32.50;;;24.23;;
9948;SDS011;5013;51.840;8.276;2023-02-24T14:01:29;28.40;;;23.70;;
9948;SDS011;5013;51.840;8.276;2023-02-24T14:04:16;29.80;;;24.53;;
9948;SDS011;5013;51.840;8.276;2023-02-24T14:06:49;29.83;;;23.80;;
9948;SDS011;5013;51.840;8.276;2023-02-24T14:09:20;28.60;;;22.33;;
9948;SDS011;5013;51.840;8.276;2023-02-24T14:12:22;31.80;;;23.10;;
9948;SDS011;5013;51.840;8.276;2023-02-24T14:14:43;35.83;;;26.13;;
9948;SDS011;5013;51.840;8.276;2023-02-24T14:19:53;28.43;;;25.43;;
9948;SDS011;5013;51.840;8.276;2023-02-24T14:22:47;33.60;;;25.73;;
9948;SDS011;5013;51.840;8.276;2023-02-24T14:25:21;29.73;;;25.60;;
9948;SDS011;5013;51.840;8.276;2023-02-24T14:27:48;29.10;;;25.53;;
9948;SDS011;5013;51.840;8.276;2023-02-24T14:33:00;34.70;;;27.30;;
9948;SDS011;5013;51.840;8.276;2023-02-24T14:37:56;74.73;;;40.20;;
9948;SDS011;5013;51.840;8.276;2023-02-24T14:40:22;86.33;;;43.83;;
9948;SDS011;5013;51.840;8.276;2023-02-24T14:42:49;100.83;;;47.87;;
9948;SDS011;5013;51.840;8.276;2023-02-24T14:45:20;81.43;;;45.83;;
9948;SDS011;5013;51.840;8.276;2023-02-24T14:47:52;39.87;;;30.53;;
9948;SDS011;5013;51.840;8.276;2023-02-24T14:50:21;36.20;;;27.50;;
9948;SDS011;5013;51.840;8.276;2023-02-24T14:55:33;26.87;;;24.13;;
9948;SDS011;5013;51.840;8.276;2023-02-24T15:00:40;32.87;;;27.83;;
9948;SDS011;5013;51.840;8.276;2023-02-24T15:03:17;33.83;;;29.80;;
9948;SDS011;5013;51.840;8.276;2023-02-24T15:05:47;40.03;;;29.33;;
9948;SDS011;5013;51.840;8.276;2023-02-24T15:10:53;34.67;;;27.93;;
9948;SDS011;5013;51.840;8.276;2023-02-24T15:13:24;33.80;;;27.37;;
9948;SDS011;5013;51.840;8.276;2023-02-24T15:15:51;32.87;;;25.57;;
9948;SDS011;5013;51.840;8.276;2023-02-24T15:18:26;37.87;;;26.67;;
9948;SDS011;5013;51.840;8.276;2023-02-24T15:21:00;35.00;;;28.83;;
9948;SDS011;5013;51.840;8.276;2023-02-24T15:23:29;37.70;;;29.37;;
9948;SDS011;5013;51.840;8.276;2023-02-24T15:25:58;37.83;;;29.83;;
9948;SDS011;5013;51.840;8.276;2023-02-24T15:33:25;34.37;;;25.03;;
9948;SDS011;5013;51.840;8.276;2023-02-24T15:35:57;67.63;;;38.47;;
9948;SDS011;5013;51.840;8.276;2023-02-24T15:38:31;51.83;;;35.77;;
9948;SDS011;5013;51.840;8.276;2023-02-24T15:41:00;39.27;;;28.40;;
9948;SDS011;5013;51.840;8.276;2023-02-24T15:43:37;36.97;;;28.50;;
9948;SDS011;5013;51.840;8.276;2023-02-24T15:48:43;42.17;;;31.97;;
9948;SDS011;5013;51.840;8.276;2023-02-24T15:54:10;37.90;;;30.73;;
9948;SDS011;5013;51.840;8.276;2023-02-24T15:56:39;35.27;;;28.50;;
9948;SDS011;5013;51.840;8.276;2023-02-24T15:59:05;39.23;;;31.87;;
9948;SDS011;5013;51.840;8.276;2023-02-24T16:01:31;38.47;;;29.80;;
9948;SDS011;5013;51.840;8.276;2023-02-24T16:03:58;37.77;;;32.67;;
9948;SDS011;5013;51.840;8.276;2023-02-24T16:06:24;40.97;;;32.77;;
9948;SDS011;5013;51.840;8.276;2023-02-24T16:08:51;43.83;;;33.70;;
9948;SDS011;5013;51.840;8.276;2023-02-24T16:11:19;36.67;;;31.77;;
9948;SDS011;5013;51.840;8.276;2023-02-24T16:13:52;49.73;;;35.63;;
9948;SDS011;5013;51.840;8.276;2023-02-24T16:16:21;39.17;;;32.13;;
9948;SDS011;5013;51.840;8.276;2023-02-24T16:18:48;45.07;;;35.93;;
9948;SDS011;5013;51.840;8.276;2023-02-24T16:21:14;46.87;;;34.77;;
9948;SDS011;5013;51.840;8.276;2023-02-24T16:23:40;44.03;;;33.27;;
9948;SDS011;5013;51.840;8.276;2023-02-24T16:26:08;43.43;;;34.40;;
9948;SDS011;5013;51.840;8.276;2023-02-24T16:28:43;47.47;;;36.30;;
9948;SDS011;5013;51.840;8.276;2023-02-24T16:31:12;43.43;;;32.77;;
9948;SDS011;5013;51.840;8.276;2023-02-24T16:33:38;52.17;;;33.80;;
9948;SDS011;5013;51.840;8.276;2023-02-24T16:36:08;40.07;;;33.93;;
9948;SDS011;5013;51.840;8.276;2023-02-24T16:38:35;49.43;;;34.30;;
9948;SDS011;5013;51.840;8.276;2023-02-24T16:41:01;45.97;;;35.73;;
9948;SDS011;5013;51.840;8.276;2023-02-24T16:43:27;55.97;;;36.13;;
9948;SDS011;5013;51.840;8.276;2023-02-24T16:45:54;42.80;;;31.77;;
9948;SDS011;5013;51.840;8.276;2023-02-24T16:48:25;49.10;;;32.37;;
9948;SDS011;5013;51.840;8.276;2023-02-24T16:50:51;44.47;;;33.87;;
9948;SDS011;5013;51.840;8.276;2023-02-24T16:53:19;45.13;;;33.23;;
9948;SDS011;5013;51.840;8.276;2023-02-24T16:55:47;50.37;;;31.93;;
9948;SDS011;5013;51.840;8.276;2023-02-24T16:58:13;47.47;;;33.17;;
9948;SDS011;5013;51.840;8.276;2023-02-24T17:00:39;39.20;;;28.77;;
9948;SDS011;5013;51.840;8.276;2023-02-24T17:03:12;42.07;;;28.30;;
9948;SDS011;5013;51.840;8.276;2023-02-24T17:05:43;42.13;;;27.70;;
9948;SDS011;5013;51.840;8.276;2023-02-24T17:08:09;38.77;;;26.60;;
9948;SDS011;5013;51.840;8.276;2023-02-24T17:10:35;39.43;;;27.60;;
9948;SDS011;5013;51.840;8.276;2023-02-24T17:13:03;38.57;;;26.53;;
9948;SDS011;5013;51.840;8.276;2023-02-24T17:15:32;40.50;;;28.90;;
9948;SDS011;5013;51.840;8.276;2023-02-24T17:17:58;41.97;;;27.80;;
9948;SDS011;5013;51.840;8.276;2023-02-24T17:20:23;33.67;;;22.83;;
9948;SDS011;5013;51.840;8.276;2023-02-24T17:22:49;35.50;;;24.40;;
9948;SDS011;5013;51.840;8.276;2023-02-24T17:25:15;38.20;;;24.20;;
9948;SDS011;5013;51.840;8.276;2023-02-24T17:27:46;35.80;;;23.57;;
9948;SDS011;5013;51.840;8.276;2023-02-24T17:30:17;43.30;;;24.30;;
9948;SDS011;5013;51.840;8.276;2023-02-24T17:32:45;28.60;;;21.17;;
9948;SDS011;5013;51.840;8.276;2023-02-24T17:35:11;35.50;;;24.87;;
9948;SDS011;5013;51.840;8.276;2023-02-24T17:37:36;32.37;;;23.00;;
9948;SDS011;5013;51.840;8.276;2023-02-24T17:40:02;41.23;;;24.97;;
9948;SDS011;5013;51.840;8.276;2023-02-24T17:42:28;33.53;;;23.37;;
9948;SDS011;5013;51.840;8.276;2023-02-24T17:44:54;24.17;;;17.53;;
9948;SDS011;5013;51.840;8.276;2023-02-24T17:50:43;13.30;;;7.07;;
9948;SDS011;5013;51.840;8.276;2023-02-24T17:53:09;8.93;;;6.47;;
9948;SDS011;5013;51.840;8.276;2023-02-24T17:55:34;7.50;;;5.13;;
9948;SDS011;5013;51.840;8.276;2023-02-24T17:58:00;5.60;;;4.60;;
9948;SDS011;5013;51.840;8.276;2023-02-24T18:00:26;4.07;;;3.73;;
9948;SDS011;5013;51.840;8.276;2023-02-24T18:02:52;7.00;;;3.43;;
9948;SDS011;5013;51.840;8.276;2023-02-24T18:05:18;3.77;;;3.47;;